sensor_id;sensor_type;location;lat;lon;timestamp;P1;durP1;ratioP1;P2;durP2;ratioP2
6840;SDS011;3458;53.678;14.080;2023-05-07T00:00:10;6.87;;;4.80;;
6840;SDS011;3458;53.678;14.080;2023-05-07T00:02:36;6.93;;;5.07;;
6840;SDS011;3458;53.678;14.080;2023-05-07T00:05:02;7.50;;;4.87;;
6840;SDS011;3458;53.678;14.080;2023-05-07T00:07:28;8.20;;;5.23;;
6840;SDS011;3458;53.678;14.080;2023-05-07T00:09:54;8.33;;;5.40;;
6840;SDS011;3458;53.678;14.080;2023-05-07T00:12:19;10.50;;;5.30;;
6840;SDS011;3458;53.678;14.080;2023-05-07T00:14:45;7.20;;;4.73;;
6840;SDS011;3458;53.678;14.080;2023-05-07T00:17:10;8.10;;;5.07;;
6840;SDS011;3458;53.678;14.080;2023-05-07T00:19:36;9.97;;;4.97;;
6840;SDS011;3458;53.678;14.080;2023-05-07T00:22:02;11.67;;;5.30;;
6840;SDS011;3458;53.678;14.080;2023-05-07T00:24:27;9.67;;;4.50;;
6840;SDS011;3458;53.678;14.080;2023-05-07T00:26:52;7.53;;;5.07;;
6840;SDS011;3458;53.678;14.080;2023-05-07T00:29:18;9.57;;;5.57;;
6840;SDS011;3458;53.678;14.080;2023-05-07T00:31:44;6.80;;;5.40;;
6840;SDS011;3458;53.678;14.080;2023-05-07T00:34:09;8.33;;;4.70;;
6840;SDS011;3458;53.678;14.080;2023-05-07T00:36:35;8.73;;;5.00;;
6840;SDS011;3458;53.678;14.080;2023-05-07T00:39:00;9.10;;;5.50;;
6840;SDS011;3458;53.678;14.080;2023-05-07T00:41:28;9.30;;;5.43;;
6840;SDS011;3458;53.678;14.080;2023-05-07T00:43:55;8.57;;;5.20;;
6840;SDS011;3458;53.678;14.080;2023-05-07T00:46:21;9.43;;;5.90;;
6840;SDS011;3458;53.678;14.080;2023-05-07T00:48:47;7.93;;;5.47;;
6840;SDS011;3458;53.678;14.080;2023-05-07T00:51:14;7.40;;;5.10;;
6840;SDS011;3458;53.678;14.080;2023-05-07T00:53:40;7.27;;;4.87;;
6840;SDS011;3458;53.678;14.080;2023-05-07T00:56:06;12.33;;;6.13;;
6840;SDS011;3458;53.678;14.080;2023-05-07T00:58:32;7.20;;;5.20;;
6840;SDS011;3458;53.678;14.080;2023-05-07T01:00:58;5.13;;;4.63;;
6840;SDS011;3458;53.678;14.080;2023-05-07T01:03:24;12.10;;;5.67;;
6840;SDS011;3458;53.678;14.080;2023-05-07T01:05:50;9.70;;;6.10;;
6840;SDS011;3458;53.678;14.080;2023-05-07T01:08:19;8.80;;;4.70;;
6840;SDS011;3458;53.678;14.080;2023-05-07T01:10:46;8.90;;;5.63;;
6840;SDS011;3458;53.678;14.080;2023-05-07T01:13:12;9.40;;;5.93;;
6840;SDS011;3458;53.678;14.080;2023-05-07T01:15:38;9.53;;;5.67;;
6840;SDS011;3458;53.678;14.080;2023-05-07T01:18:05;9.70;;;6.03;;
6840;SDS011;3458;53.678;14.080;2023-05-07T01:20:31;9.77;;;4.93;;
6840;SDS011;3458;53.678;14.080;2023-05-07T01:22:57;9.17;;;5.57;;
6840;SDS011;3458;53.678;14.080;2023-05-07T01:25:25;10.43;;;5.53;;
6840;SDS011;3458;53.678;14.080;2023-05-07T01:27:50;9.13;;;5.37;;
6840;SDS011;3458;53.678;14.080;2023-05-07T01:30:16;12.60;;;6.40;;
6840;SDS011;3458;53.678;14.080;2023-05-07T01:32:51;11.30;;;5.00;;
6840;SDS011;3458;53.678;14.080;2023-05-07T01:35:22;10.83;;;5.53;;
6840;SDS011;3458;53.678;14.080;2023-05-07T01:37:51;7.07;;;5.17;;
6840;SDS011;3458;53.678;14.080;2023-05-07T01:40:18;10.10;;;5.17;;
6840;SDS011;3458;53.678;14.080;2023-05-07T01:42:43;8.50;;;5.43;;
6840;SDS011;3458;53.678;14.080;2023-05-07T01:45:10;6.73;;;4.90;;
6840;SDS011;3458;53.678;14.080;2023-05-07T01:47:37;6.80;;;4.57;;
6840;SDS011;3458;53.678;14.080;2023-05-07T01:50:03;12.03;;;5.20;;
6840;SDS011;3458;53.678;14.080;2023-05-07T01:52:36;9.23;;;4.73;;
6840;SDS011;3458;53.678;14.080;2023-05-07T01:55:03;8.20;;;4.93;;
6840;SDS011;3458;53.678;14.080;2023-05-07T01:57:29;12.70;;;5.73;;
6840;SDS011;3458;53.678;14.080;2023-05-07T01:59:55;9.90;;;5.10;;
6840;SDS011;3458;53.678;14.080;2023-05-07T02:02:20;9.17;;;6.10;;
6840;SDS011;3458;53.678;14.080;2023-05-07T02:04:46;10.23;;;6.30;;
6840;SDS011;3458;53.678;14.080;2023-05-07T02:07:11;6.93;;;5.00;;
6840;SDS011;3458;53.678;14.080;2023-05-07T02:09:37;9.40;;;5.40;;
6840;SDS011;3458;53.678;14.080;2023-05-07T02:12:03;10.50;;;5.90;;
6840;SDS011;3458;53.678;14.080;2023-05-07T02:14:29;16.60;;;6.70;;
6840;SDS011;3458;53.678;14.080;2023-05-07T02:16:54;8.33;;;6.33;;
6840;SDS011;3458;53.678;14.080;2023-05-07T02:19:20;7.63;;;5.60;;
6840;SDS011;3458;53.678;14.080;2023-05-07T02:21:46;8.97;;;5.67;;
6840;SDS011;3458;53.678;14.080;2023-05-07T02:24:12;9.03;;;5.60;;
6840;SDS011;3458;53.678;14.080;2023-05-07T02:26:37;9.53;;;6.00;;
6840;SDS011;3458;53.678;14.080;2023-05-07T02:29:04;7.43;;;5.37;;
6840;SDS011;3458;53.678;14.080;2023-05-07T02:31:29;7.97;;;5.50;;
6840;SDS011;3458;53.678;14.080;2023-05-07T02:33:55;10.10;;;5.73;;
6840;SDS011;3458;53.678;14.080;2023-05-07T02:36:20;12.03;;;5.80;;
6840;SDS011;3458;53.678;14.080;2023-05-07T02:38:46;23.40;;;5.80;;
6840;SDS011;3458;53.678;14.080;2023-05-07T02:41:11;12.50;;;5.97;;
6840;SDS011;3458;53.678;14.080;2023-05-07T02:43:37;7.97;;;6.37;;
6840;SDS011;3458;53.678;14.080;2023-05-07T02:46:06;8.80;;;5.00;;
6840;SDS011;3458;53.678;14.080;2023-05-07T02:48:33;8.67;;;5.00;;
6840;SDS011;3458;53.678;14.080;2023-05-07T02:50:59;7.77;;;5.43;;
6840;SDS011;3458;53.678;14.080;2023-05-07T02:53:25;12.07;;;6.27;;
6840;SDS011;3458;53.678;14.080;2023-05-07T02:55:57;9.57;;;5.90;;
6840;SDS011;3458;53.678;14.080;2023-05-07T02:58:24;15.90;;;5.40;;
6840;SDS011;3458;53.678;14.080;2023-05-07T03:00:50;9.27;;;5.20;;
6840;SDS011;3458;53.678;14.080;2023-05-07T03:03:16;8.43;;;4.60;;
6840;SDS011;3458;53.678;14.080;2023-05-07T03:05:42;9.70;;;4.97;;
6840;SDS011;3458;53.678;14.080;2023-05-07T03:08:07;8.43;;;5.50;;
6840;SDS011;3458;53.678;14.080;2023-05-07T03:10:33;8.87;;;5.60;;
6840;SDS011;3458;53.678;14.080;2023-05-07T03:13:00;7.80;;;4.97;;
6840;SDS011;3458;53.678;14.080;2023-05-07T03:15:25;12.10;;;5.73;;
6840;SDS011;3458;53.678;14.080;2023-05-07T03:17:51;9.80;;;5.57;;
6840;SDS011;3458;53.678;14.080;2023-05-07T03:20:16;7.63;;;4.93;;
6840;SDS011;3458;53.678;14.080;2023-05-07T03:22:42;13.13;;;5.40;;
6840;SDS011;3458;53.678;14.080;2023-05-07T03:25:08;17.53;;;4.90;;
6840;SDS011;3458;53.678;14.080;2023-05-07T03:27:34;8.10;;;5.20;;
6840;SDS011;3458;53.678;14.080;2023-05-07T03:29:59;7.07;;;4.77;;
6840;SDS011;3458;53.678;14.080;2023-05-07T03:32:25;8.03;;;4.60;;
6840;SDS011;3458;53.678;14.080;2023-05-07T03:34:51;7.60;;;4.97;;
6840;SDS011;3458;53.678;14.080;2023-05-07T03:37:16;13.97;;;5.37;;
6840;SDS011;3458;53.678;14.080;2023-05-07T03:39:42;9.40;;;4.97;;
6840;SDS011;3458;53.678;14.080;2023-05-07T03:42:07;10.00;;;6.50;;
6840;SDS011;3458;53.678;14.080;2023-05-07T03:44:33;10.80;;;5.17;;
6840;SDS011;3458;53.678;14.080;2023-05-07T03:46:58;10.77;;;5.30;;
6840;SDS011;3458;53.678;14.080;2023-05-07T03:49:24;9.70;;;5.37;;
6840;SDS011;3458;53.678;14.080;2023-05-07T03:51:49;6.30;;;4.67;;
6840;SDS011;3458;53.678;14.080;2023-05-07T03:54:16;9.03;;;5.20;;
6840;SDS011;3458;53.678;14.080;2023-05-07T03:56:41;8.23;;;5.20;;
6840;SDS011;3458;53.678;14.080;2023-05-07T03:59:07;13.50;;;6.07;;
6840;SDS011;3458;53.678;14.080;2023-05-07T04:01:32;9.33;;;5.27;;
6840;SDS011;3458;53.678;14.080;2023-05-07T04:03:58;9.67;;;5.27;;
6840;SDS011;3458;53.678;14.080;2023-05-07T04:06:23;10.00;;;5.00;;
6840;SDS011;3458;53.678;14.080;2023-05-07T04:08:49;8.80;;;4.63;;
6840;SDS011;3458;53.678;14.080;2023-05-07T04:11:14;8.90;;;5.20;;
6840;SDS011;3458;53.678;14.080;2023-05-07T04:13:40;9.07;;;4.53;;
6840;SDS011;3458;53.678;14.080;2023-05-07T04:16:05;10.80;;;4.90;;
6840;SDS011;3458;53.678;14.080;2023-05-07T04:18:31;9.70;;;4.87;;
6840;SDS011;3458;53.678;14.080;2023-05-07T04:20:57;6.33;;;4.47;;
6840;SDS011;3458;53.678;14.080;2023-05-07T04:23:22;9.53;;;5.27;;
6840;SDS011;3458;53.678;14.080;2023-05-07T04:25:48;6.97;;;4.90;;
6840;SDS011;3458;53.678;14.080;2023-05-07T04:28:13;8.90;;;5.20;;
6840;SDS011;3458;53.678;14.080;2023-05-07T04:30:39;8.63;;;5.37;;
6840;SDS011;3458;53.678;14.080;2023-05-07T04:33:06;8.93;;;4.90;;
6840;SDS011;3458;53.678;14.080;2023-05-07T04:35:32;7.83;;;4.97;;
6840;SDS011;3458;53.678;14.080;2023-05-07T04:37:57;8.90;;;5.40;;
6840;SDS011;3458;53.678;14.080;2023-05-07T04:40:23;10.67;;;5.30;;
6840;SDS011;3458;53.678;14.080;2023-05-07T04:42:48;7.77;;;4.70;;
6840;SDS011;3458;53.678;14.080;2023-05-07T04:45:14;9.07;;;5.10;;
6840;SDS011;3458;53.678;14.080;2023-05-07T04:47:40;7.23;;;4.77;;
6840;SDS011;3458;53.678;14.080;2023-05-07T04:50:06;6.17;;;4.83;;
6840;SDS011;3458;53.678;14.080;2023-05-07T04:52:32;9.90;;;5.47;;
6840;SDS011;3458;53.678;14.080;2023-05-07T04:55:01;7.40;;;4.93;;
6840;SDS011;3458;53.678;14.080;2023-05-07T04:57:26;8.40;;;4.60;;
6840;SDS011;3458;53.678;14.080;2023-05-07T04:59:52;10.80;;;5.43;;
6840;SDS011;3458;53.678;14.080;2023-05-07T05:02:19;14.20;;;6.63;;
6840;SDS011;3458;53.678;14.080;2023-05-07T05:04:44;11.40;;;5.93;;
6840;SDS011;3458;53.678;14.080;2023-05-07T05:07:10;13.13;;;6.53;;
6840;SDS011;3458;53.678;14.080;2023-05-07T05:09:35;13.00;;;6.77;;
6840;SDS011;3458;53.678;14.080;2023-05-07T05:12:01;17.23;;;7.40;;
6840;SDS011;3458;53.678;14.080;2023-05-07T05:14:27;15.90;;;7.63;;
6840;SDS011;3458;53.678;14.080;2023-05-07T05:16:52;15.40;;;9.23;;
6840;SDS011;3458;53.678;14.080;2023-05-07T05:19:18;15.13;;;9.67;;
6840;SDS011;3458;53.678;14.080;2023-05-07T05:21:43;19.33;;;9.30;;
6840;SDS011;3458;53.678;14.080;2023-05-07T05:24:09;25.83;;;10.00;;
6840;SDS011;3458;53.678;14.080;2023-05-07T05:26:34;24.10;;;10.23;;
6840;SDS011;3458;53.678;14.080;2023-05-07T05:29:00;21.03;;;10.97;;
6840;SDS011;3458;53.678;14.080;2023-05-07T05:31:25;18.93;;;10.40;;
6840;SDS011;3458;53.678;14.080;2023-05-07T05:33:51;26.70;;;10.70;;
6840;SDS011;3458;53.678;14.080;2023-05-07T05:36:17;17.30;;;9.87;;
6840;SDS011;3458;53.678;14.080;2023-05-07T05:38:42;18.60;;;8.90;;
6840;SDS011;3458;53.678;14.080;2023-05-07T05:41:09;15.83;;;9.70;;
6840;SDS011;3458;53.678;14.080;2023-05-07T05:43:35;15.60;;;9.00;;
6840;SDS011;3458;53.678;14.080;2023-05-07T05:46:00;17.13;;;7.83;;
6840;SDS011;3458;53.678;14.080;2023-05-07T05:48:26;15.03;;;8.13;;
6840;SDS011;3458;53.678;14.080;2023-05-07T05:50:51;17.80;;;7.47;;
6840;SDS011;3458;53.678;14.080;2023-05-07T05:53:17;14.40;;;7.90;;
6840;SDS011;3458;53.678;14.080;2023-05-07T05:55:43;15.17;;;7.77;;
6840;SDS011;3458;53.678;14.080;2023-05-07T05:58:08;13.20;;;7.80;;
6840;SDS011;3458;53.678;14.080;2023-05-07T06:00:34;14.40;;;7.47;;
6840;SDS011;3458;53.678;14.080;2023-05-07T06:03:00;16.03;;;8.23;;
6840;SDS011;3458;53.678;14.080;2023-05-07T06:05:25;40.67;;;21.70;;
6840;SDS011;3458;53.678;14.080;2023-05-07T06:07:51;17.27;;;8.27;;
6840;SDS011;3458;53.678;14.080;2023-05-07T06:10:16;17.63;;;6.83;;
6840;SDS011;3458;53.678;14.080;2023-05-07T06:12:42;11.83;;;6.90;;
6840;SDS011;3458;53.678;14.080;2023-05-07T06:15:08;14.13;;;6.43;;
6840;SDS011;3458;53.678;14.080;2023-05-07T06:17:33;14.63;;;6.83;;
6840;SDS011;3458;53.678;14.080;2023-05-07T06:19:59;8.53;;;5.90;;
6840;SDS011;3458;53.678;14.080;2023-05-07T06:22:24;23.57;;;6.47;;
6840;SDS011;3458;53.678;14.080;2023-05-07T06:24:50;16.93;;;6.17;;
6840;SDS011;3458;53.678;14.080;2023-05-07T06:27:15;13.97;;;6.10;;
6840;SDS011;3458;53.678;14.080;2023-05-07T06:29:41;10.43;;;5.73;;
6840;SDS011;3458;53.678;14.080;2023-05-07T06:32:07;13.60;;;6.80;;
6840;SDS011;3458;53.678;14.080;2023-05-07T06:34:33;10.73;;;6.20;;
6840;SDS011;3458;53.678;14.080;2023-05-07T06:36:58;13.67;;;5.77;;
6840;SDS011;3458;53.678;14.080;2023-05-07T06:39:24;8.53;;;5.33;;
6840;SDS011;3458;53.678;14.080;2023-05-07T06:41:49;12.27;;;6.13;;
6840;SDS011;3458;53.678;14.080;2023-05-07T06:44:15;12.77;;;6.53;;
6840;SDS011;3458;53.678;14.080;2023-05-07T06:46:40;22.10;;;10.60;;
6840;SDS011;3458;53.678;14.080;2023-05-07T06:49:06;12.03;;;6.40;;
6840;SDS011;3458;53.678;14.080;2023-05-07T06:51:32;15.23;;;7.00;;
6840;SDS011;3458;53.678;14.080;2023-05-07T06:53:57;11.80;;;6.33;;
6840;SDS011;3458;53.678;14.080;2023-05-07T06:56:23;9.97;;;5.50;;
6840;SDS011;3458;53.678;14.080;2023-05-07T06:58:49;8.27;;;5.93;;
6840;SDS011;3458;53.678;14.080;2023-05-07T07:01:14;11.43;;;5.70;;
6840;SDS011;3458;53.678;14.080;2023-05-07T07:03:40;16.73;;;5.63;;
6840;SDS011;3458;53.678;14.080;2023-05-07T07:06:05;11.33;;;5.30;;
6840;SDS011;3458;53.678;14.080;2023-05-07T07:08:31;10.87;;;6.10;;
6840;SDS011;3458;53.678;14.080;2023-05-07T07:10:57;15.50;;;5.50;;
6840;SDS011;3458;53.678;14.080;2023-05-07T07:13:23;9.40;;;5.40;;
6840;SDS011;3458;53.678;14.080;2023-05-07T07:15:48;10.20;;;6.20;;
6840;SDS011;3458;53.678;14.080;2023-05-07T07:18:14;17.30;;;6.00;;
6840;SDS011;3458;53.678;14.080;2023-05-07T07:20:40;8.33;;;5.83;;
6840;SDS011;3458;53.678;14.080;2023-05-07T07:23:05;11.20;;;5.33;;
6840;SDS011;3458;53.678;14.080;2023-05-07T07:25:31;8.60;;;5.17;;
6840;SDS011;3458;53.678;14.080;2023-05-07T07:27:57;14.10;;;4.90;;
6840;SDS011;3458;53.678;14.080;2023-05-07T07:30:22;8.47;;;5.00;;
6840;SDS011;3458;53.678;14.080;2023-05-07T07:32:48;13.03;;;4.80;;
6840;SDS011;3458;53.678;14.080;2023-05-07T07:35:13;10.37;;;5.60;;
6840;SDS011;3458;53.678;14.080;2023-05-07T07:37:39;10.60;;;5.10;;
6840;SDS011;3458;53.678;14.080;2023-05-07T07:40:04;7.87;;;5.47;;
6840;SDS011;3458;53.678;14.080;2023-05-07T07:42:31;6.90;;;4.43;;
6840;SDS011;3458;53.678;14.080;2023-05-07T07:44:56;15.37;;;6.90;;
6840;SDS011;3458;53.678;14.080;2023-05-07T07:47:22;5.80;;;4.47;;
6840;SDS011;3458;53.678;14.080;2023-05-07T07:49:48;8.93;;;4.10;;
6840;SDS011;3458;53.678;14.080;2023-05-07T07:52:13;9.03;;;3.97;;
6840;SDS011;3458;53.678;14.080;2023-05-07T07:54:38;14.70;;;4.77;;
6840;SDS011;3458;53.678;14.080;2023-05-07T07:57:04;6.10;;;4.17;;
6840;SDS011;3458;53.678;14.080;2023-05-07T07:59:30;11.87;;;6.30;;
6840;SDS011;3458;53.678;14.080;2023-05-07T08:01:55;8.57;;;5.17;;
6840;SDS011;3458;53.678;14.080;2023-05-07T08:04:22;20.43;;;11.80;;
6840;SDS011;3458;53.678;14.080;2023-05-07T08:06:47;6.93;;;4.07;;
6840;SDS011;3458;53.678;14.080;2023-05-07T08:09:13;5.00;;;3.73;;
6840;SDS011;3458;53.678;14.080;2023-05-07T08:11:38;6.83;;;3.40;;
6840;SDS011;3458;53.678;14.080;2023-05-07T08:14:04;5.73;;;4.27;;
6840;SDS011;3458;53.678;14.080;2023-05-07T08:16:29;9.10;;;4.00;;
6840;SDS011;3458;53.678;14.080;2023-05-07T08:18:55;4.40;;;3.63;;
6840;SDS011;3458;53.678;14.080;2023-05-07T08:21:21;17.13;;;4.67;;
6840;SDS011;3458;53.678;14.080;2023-05-07T08:23:47;14.87;;;4.23;;
6840;SDS011;3458;53.678;14.080;2023-05-07T08:26:13;6.70;;;4.00;;
6840;SDS011;3458;53.678;14.080;2023-05-07T08:28:38;9.43;;;4.23;;
6840;SDS011;3458;53.678;14.080;2023-05-07T08:31:04;12.50;;;4.23;;
6840;SDS011;3458;53.678;14.080;2023-05-07T08:33:30;9.50;;;4.23;;
6840;SDS011;3458;53.678;14.080;2023-05-07T08:35:55;10.63;;;4.40;;
6840;SDS011;3458;53.678;14.080;2023-05-07T08:38:21;11.70;;;4.00;;
6840;SDS011;3458;53.678;14.080;2023-05-07T08:40:47;9.00;;;4.10;;
6840;SDS011;3458;53.678;14.080;2023-05-07T08:43:13;6.10;;;3.63;;
6840;SDS011;3458;53.678;14.080;2023-05-07T08:45:39;5.63;;;3.43;;
6840;SDS011;3458;53.678;14.080;2023-05-07T08:48:08;7.77;;;3.67;;
6840;SDS011;3458;53.678;14.080;2023-05-07T08:50:35;4.00;;;3.07;;
6840;SDS011;3458;53.678;14.080;2023-05-07T08:53:04;6.00;;;3.33;;
6840;SDS011;3458;53.678;14.080;2023-05-07T08:55:30;5.07;;;3.43;;
6840;SDS011;3458;53.678;14.080;2023-05-07T08:57:56;11.20;;;3.80;;
6840;SDS011;3458;53.678;14.080;2023-05-07T09:00:22;10.00;;;3.47;;
6840;SDS011;3458;53.678;14.080;2023-05-07T09:02:47;6.30;;;3.90;;
6840;SDS011;3458;53.678;14.080;2023-05-07T09:05:13;9.40;;;3.70;;
6840;SDS011;3458;53.678;14.080;2023-05-07T09:07:39;5.03;;;3.27;;
6840;SDS011;3458;53.678;14.080;2023-05-07T09:10:04;7.00;;;3.50;;
6840;SDS011;3458;53.678;14.080;2023-05-07T09:12:31;5.20;;;3.70;;
6840;SDS011;3458;53.678;14.080;2023-05-07T09:14:56;4.60;;;3.17;;
6840;SDS011;3458;53.678;14.080;2023-05-07T09:17:23;5.00;;;3.17;;
6840;SDS011;3458;53.678;14.080;2023-05-07T09:19:49;4.10;;;3.33;;
6840;SDS011;3458;53.678;14.080;2023-05-07T09:22:14;3.47;;;2.87;;
6840;SDS011;3458;53.678;14.080;2023-05-07T09:24:40;11.00;;;4.63;;
6840;SDS011;3458;53.678;14.080;2023-05-07T09:27:06;5.23;;;3.00;;
6840;SDS011;3458;53.678;14.080;2023-05-07T09:29:33;6.90;;;3.20;;
6840;SDS011;3458;53.678;14.080;2023-05-07T09:32:02;4.23;;;2.80;;
6840;SDS011;3458;53.678;14.080;2023-05-07T09:34:29;6.17;;;3.20;;
6840;SDS011;3458;53.678;14.080;2023-05-07T09:36:55;4.33;;;3.77;;
6840;SDS011;3458;53.678;14.080;2023-05-07T09:39:21;6.67;;;3.80;;
6840;SDS011;3458;53.678;14.080;2023-05-07T09:41:48;9.83;;;3.63;;
6840;SDS011;3458;53.678;14.080;2023-05-07T09:44:19;6.77;;;3.37;;
6840;SDS011;3458;53.678;14.080;2023-05-07T09:46:46;6.33;;;4.20;;
6840;SDS011;3458;53.678;14.080;2023-05-07T09:49:17;8.20;;;4.53;;
6840;SDS011;3458;53.678;14.080;2023-05-07T09:51:49;7.73;;;3.60;;
6840;SDS011;3458;53.678;14.080;2023-05-07T09:54:16;7.30;;;3.70;;
6840;SDS011;3458;53.678;14.080;2023-05-07T09:56:43;7.27;;;3.90;;
6840;SDS011;3458;53.678;14.080;2023-05-07T09:59:13;4.17;;;3.10;;
6840;SDS011;3458;53.678;14.080;2023-05-07T10:01:41;5.27;;;3.93;;
6840;SDS011;3458;53.678;14.080;2023-05-07T10:04:07;5.77;;;3.60;;
6840;SDS011;3458;53.678;14.080;2023-05-07T10:06:34;9.37;;;3.67;;
6840;SDS011;3458;53.678;14.080;2023-05-07T10:09:00;6.60;;;3.70;;
6840;SDS011;3458;53.678;14.080;2023-05-07T10:11:27;10.70;;;4.80;;
6840;SDS011;3458;53.678;14.080;2023-05-07T10:13:53;7.20;;;3.67;;
6840;SDS011;3458;53.678;14.080;2023-05-07T10:16:19;5.63;;;4.10;;
6840;SDS011;3458;53.678;14.080;2023-05-07T10:18:46;4.87;;;3.70;;
6840;SDS011;3458;53.678;14.080;2023-05-07T10:21:20;6.80;;;3.40;;
6840;SDS011;3458;53.678;14.080;2023-05-07T10:23:49;6.47;;;3.30;;
6840;SDS011;3458;53.678;14.080;2023-05-07T10:26:28;8.33;;;4.07;;
6840;SDS011;3458;53.678;14.080;2023-05-07T10:29:04;4.87;;;3.17;;
6840;SDS011;3458;53.678;14.080;2023-05-07T10:31:37;6.03;;;3.33;;
6840;SDS011;3458;53.678;14.080;2023-05-07T10:34:21;4.57;;;3.00;;
6840;SDS011;3458;53.678;14.080;2023-05-07T10:36:49;6.03;;;3.20;;
6840;SDS011;3458;53.678;14.080;2023-05-07T10:39:16;5.30;;;3.17;;
6840;SDS011;3458;53.678;14.080;2023-05-07T10:41:42;6.23;;;3.00;;
6840;SDS011;3458;53.678;14.080;2023-05-07T10:44:08;4.13;;;2.70;;
6840;SDS011;3458;53.678;14.080;2023-05-07T10:46:33;4.80;;;3.40;;
6840;SDS011;3458;53.678;14.080;2023-05-07T10:51:26;6.33;;;3.00;;
6840;SDS011;3458;53.678;14.080;2023-05-07T10:56:44;4.63;;;3.27;;
6840;SDS011;3458;53.678;14.080;2023-05-07T11:02:00;12.60;;;2.70;;
6840;SDS011;3458;53.678;14.080;2023-05-07T11:04:28;2.90;;;2.43;;
6840;SDS011;3458;53.678;14.080;2023-05-07T11:15:00;3.93;;;2.97;;
6840;SDS011;3458;53.678;14.080;2023-05-07T11:17:27;4.07;;;2.30;;
6840;SDS011;3458;53.678;14.080;2023-05-07T11:19:56;3.73;;;2.50;;
6840;SDS011;3458;53.678;14.080;2023-05-07T11:24:57;4.40;;;2.70;;
6840;SDS011;3458;53.678;14.080;2023-05-07T11:27:25;5.13;;;2.83;;
6840;SDS011;3458;53.678;14.080;2023-05-07T11:29:51;4.00;;;2.60;;
6840;SDS011;3458;53.678;14.080;2023-05-07T11:32:26;4.37;;;2.90;;
6840;SDS011;3458;53.678;14.080;2023-05-07T11:34:56;6.67;;;3.43;;
6840;SDS011;3458;53.678;14.080;2023-05-07T11:37:24;7.43;;;4.47;;
6840;SDS011;3458;53.678;14.080;2023-05-07T11:39:50;9.73;;;3.23;;
6840;SDS011;3458;53.678;14.080;2023-05-07T11:44:55;3.30;;;2.80;;
6840;SDS011;3458;53.678;14.080;2023-05-07T11:47:21;5.47;;;2.83;;
6840;SDS011;3458;53.678;14.080;2023-05-07T11:49:53;3.90;;;3.07;;
6840;SDS011;3458;53.678;14.080;2023-05-07T11:52:20;3.30;;;2.80;;
6840;SDS011;3458;53.678;14.080;2023-05-07T11:54:50;3.90;;;3.20;;
6840;SDS011;3458;53.678;14.080;2023-05-07T11:57:21;5.50;;;3.00;;
6840;SDS011;3458;53.678;14.080;2023-05-07T11:59:48;8.63;;;3.73;;
6840;SDS011;3458;53.678;14.080;2023-05-07T12:02:17;4.20;;;3.40;;
6840;SDS011;3458;53.678;14.080;2023-05-07T12:04:43;25.67;;;3.33;;
6840;SDS011;3458;53.678;14.080;2023-05-07T12:07:12;6.57;;;4.33;;
6840;SDS011;3458;53.678;14.080;2023-05-07T12:09:39;5.53;;;2.93;;
6840;SDS011;3458;53.678;14.080;2023-05-07T12:12:05;6.63;;;3.27;;
6840;SDS011;3458;53.678;14.080;2023-05-07T12:14:30;12.53;;;3.70;;
6840;SDS011;3458;53.678;14.080;2023-05-07T12:16:57;3.03;;;2.73;;
6840;SDS011;3458;53.678;14.080;2023-05-07T12:19:24;7.40;;;3.33;;
6840;SDS011;3458;53.678;14.080;2023-05-07T12:21:49;4.00;;;3.03;;
6840;SDS011;3458;53.678;14.080;2023-05-07T12:24:15;6.60;;;3.40;;
6840;SDS011;3458;53.678;14.080;2023-05-07T12:26:41;11.03;;;2.70;;
6840;SDS011;3458;53.678;14.080;2023-05-07T12:29:08;5.77;;;2.50;;
6840;SDS011;3458;53.678;14.080;2023-05-07T12:31:33;5.47;;;2.90;;
6840;SDS011;3458;53.678;14.080;2023-05-07T12:33:59;3.20;;;2.50;;
6840;SDS011;3458;53.678;14.080;2023-05-07T12:36:24;3.10;;;2.37;;
6840;SDS011;3458;53.678;14.080;2023-05-07T12:38:50;2.50;;;2.30;;
6840;SDS011;3458;53.678;14.080;2023-05-07T12:41:16;6.63;;;2.50;;
6840;SDS011;3458;53.678;14.080;2023-05-07T12:43:44;3.70;;;2.77;;
6840;SDS011;3458;53.678;14.080;2023-05-07T12:46:11;2.57;;;2.13;;
6840;SDS011;3458;53.678;14.080;2023-05-07T12:48:43;6.33;;;2.57;;
6840;SDS011;3458;53.678;14.080;2023-05-07T12:51:10;3.87;;;2.60;;
6840;SDS011;3458;53.678;14.080;2023-05-07T12:53:41;2.63;;;2.43;;
6840;SDS011;3458;53.678;14.080;2023-05-07T12:56:07;2.60;;;2.10;;
6840;SDS011;3458;53.678;14.080;2023-05-07T12:58:34;6.00;;;2.50;;
6840;SDS011;3458;53.678;14.080;2023-05-07T13:01:05;4.17;;;2.50;;
6840;SDS011;3458;53.678;14.080;2023-05-07T13:03:33;2.23;;;2.03;;
6840;SDS011;3458;53.678;14.080;2023-05-07T13:06:00;8.83;;;2.90;;
6840;SDS011;3458;53.678;14.080;2023-05-07T13:08:34;6.43;;;3.57;;
6840;SDS011;3458;53.678;14.080;2023-05-07T13:11:06;3.33;;;2.83;;
6840;SDS011;3458;53.678;14.080;2023-05-07T13:13:33;4.20;;;2.40;;
6840;SDS011;3458;53.678;14.080;2023-05-07T13:16:00;4.03;;;2.20;;
6840;SDS011;3458;53.678;14.080;2023-05-07T13:18:27;3.80;;;2.80;;
6840;SDS011;3458;53.678;14.080;2023-05-07T13:20:54;2.27;;;1.87;;
6840;SDS011;3458;53.678;14.080;2023-05-07T13:23:19;4.40;;;3.00;;
6840;SDS011;3458;53.678;14.080;2023-05-07T13:25:45;3.53;;;1.80;;
6840;SDS011;3458;53.678;14.080;2023-05-07T13:28:11;3.53;;;2.27;;
6840;SDS011;3458;53.678;14.080;2023-05-07T13:30:37;4.50;;;2.37;;
6840;SDS011;3458;53.678;14.080;2023-05-07T13:33:02;5.37;;;2.47;;
6840;SDS011;3458;53.678;14.080;2023-05-07T13:35:28;2.37;;;1.97;;
6840;SDS011;3458;53.678;14.080;2023-05-07T13:37:53;2.27;;;2.17;;
6840;SDS011;3458;53.678;14.080;2023-05-07T13:40:19;5.97;;;2.10;;
6840;SDS011;3458;53.678;14.080;2023-05-07T13:42:45;4.47;;;1.93;;
6840;SDS011;3458;53.678;14.080;2023-05-07T13:45:11;3.53;;;2.10;;
6840;SDS011;3458;53.678;14.080;2023-05-07T13:47:39;9.10;;;2.77;;
6840;SDS011;3458;53.678;14.080;2023-05-07T13:50:05;3.23;;;2.10;;
6840;SDS011;3458;53.678;14.080;2023-05-07T13:52:32;2.23;;;2.03;;
6840;SDS011;3458;53.678;14.080;2023-05-07T13:54:57;2.90;;;1.97;;
6840;SDS011;3458;53.678;14.080;2023-05-07T13:57:23;3.60;;;2.33;;
6840;SDS011;3458;53.678;14.080;2023-05-07T13:59:49;2.20;;;1.87;;
6840;SDS011;3458;53.678;14.080;2023-05-07T14:02:15;4.03;;;2.20;;
6840;SDS011;3458;53.678;14.080;2023-05-07T14:04:40;3.23;;;2.30;;
6840;SDS011;3458;53.678;14.080;2023-05-07T14:07:06;3.07;;;2.83;;
6840;SDS011;3458;53.678;14.080;2023-05-07T14:09:32;6.20;;;2.03;;
6840;SDS011;3458;53.678;14.080;2023-05-07T14:11:58;2.00;;;1.80;;
6840;SDS011;3458;53.678;14.080;2023-05-07T14:14:23;6.00;;;3.77;;
6840;SDS011;3458;53.678;14.080;2023-05-07T14:16:49;2.27;;;2.07;;
6840;SDS011;3458;53.678;14.080;2023-05-07T14:19:15;2.60;;;1.87;;
6840;SDS011;3458;53.678;14.080;2023-05-07T14:21:40;1.87;;;1.60;;
6840;SDS011;3458;53.678;14.080;2023-05-07T14:24:06;2.90;;;1.70;;
6840;SDS011;3458;53.678;14.080;2023-05-07T14:26:33;2.80;;;2.03;;
6840;SDS011;3458;53.678;14.080;2023-05-07T14:28:59;2.00;;;1.90;;
6840;SDS011;3458;53.678;14.080;2023-05-07T14:31:25;2.77;;;1.87;;
6840;SDS011;3458;53.678;14.080;2023-05-07T14:33:50;6.80;;;2.00;;
6840;SDS011;3458;53.678;14.080;2023-05-07T14:36:17;3.20;;;1.97;;
6840;SDS011;3458;53.678;14.080;2023-05-07T14:38:44;1.73;;;1.63;;
6840;SDS011;3458;53.678;14.080;2023-05-07T14:41:10;1.93;;;1.83;;
6840;SDS011;3458;53.678;14.080;2023-05-07T14:43:36;2.20;;;1.67;;
6840;SDS011;3458;53.678;14.080;2023-05-07T14:46:01;1.63;;;1.53;;
6840;SDS011;3458;53.678;14.080;2023-05-07T14:48:27;1.50;;;1.40;;
6840;SDS011;3458;53.678;14.080;2023-05-07T14:50:52;2.27;;;1.80;;
6840;SDS011;3458;53.678;14.080;2023-05-07T14:53:18;2.57;;;1.80;;
6840;SDS011;3458;53.678;14.080;2023-05-07T14:55:43;2.90;;;2.70;;
6840;SDS011;3458;53.678;14.080;2023-05-07T14:58:10;2.40;;;1.50;;
6840;SDS011;3458;53.678;14.080;2023-05-07T15:00:36;2.30;;;1.83;;
6840;SDS011;3458;53.678;14.080;2023-05-07T15:03:05;2.33;;;1.80;;
6840;SDS011;3458;53.678;14.080;2023-05-07T15:05:32;3.30;;;1.97;;
6840;SDS011;3458;53.678;14.080;2023-05-07T15:07:58;1.97;;;1.73;;
6840;SDS011;3458;53.678;14.080;2023-05-07T15:10:23;4.90;;;2.53;;
6840;SDS011;3458;53.678;14.080;2023-05-07T15:12:49;3.10;;;2.80;;